sensor_id;sensor_type;location;lat;lon;timestamp;P1;durP1;ratioP1;P2;durP2;ratioP2
11653;SDS011;5883;48.818;9.114;2022-10-17T00:02:01;4.75;;;2.38;;
11653;SDS011;5883;48.818;9.114;2022-10-17T00:04:27;4.38;;;2.38;;
11653;SDS011;5883;48.818;9.114;2022-10-17T00:06:54;3.25;;;2.30;;
11653;SDS011;5883;48.818;9.114;2022-10-17T00:09:20;4.22;;;2.90;;
11653;SDS011;5883;48.818;9.114;2022-10-17T00:11:47;4.03;;;2.80;;
11653;SDS011;5883;48.818;9.114;2022-10-17T00:14:13;4.43;;;2.70;;
11653;SDS011;5883;48.818;9.114;2022-10-17T00:16:41;7.15;;;4.25;;
11653;SDS011;5883;48.818;9.114;2022-10-17T00:19:08;7.30;;;4.40;;
11653;SDS011;5883;48.818;9.114;2022-10-17T00:21:34;7.68;;;2.25;;
11653;SDS011;5883;48.818;9.114;2022-10-17T00:24:01;4.82;;;2.05;;
11653;SDS011;5883;48.818;9.114;2022-10-17T00:26:28;10.38;;;2.67;;
11653;SDS011;5883;48.818;9.114;2022-10-17T00:28:54;6.82;;;2.78;;
11653;SDS011;5883;48.818;9.114;2022-10-17T00:31:22;5.18;;;2.47;;
11653;SDS011;5883;48.818;9.114;2022-10-17T00:33:50;4.03;;;2.65;;
11653;SDS011;5883;48.818;9.114;2022-10-17T00:36:17;8.95;;;2.50;;
11653;SDS011;5883;48.818;9.114;2022-10-17T00:38:45;2.35;;;2.10;;
11653;SDS011;5883;48.818;9.114;2022-10-17T00:41:12;7.47;;;2.45;;
11653;SDS011;5883;48.818;9.114;2022-10-17T00:43:49;9.88;;;2.30;;
11653;SDS011;5883;48.818;9.114;2022-10-17T00:46:16;5.55;;;1.95;;
11653;SDS011;5883;48.818;9.114;2022-10-17T00:48:43;2.58;;;2.05;;
11653;SDS011;5883;48.818;9.114;2022-10-17T00:51:10;3.83;;;2.28;;
11653;SDS011;5883;48.818;9.114;2022-10-17T00:53:37;4.00;;;1.85;;
11653;SDS011;5883;48.818;9.114;2022-10-17T00:56:04;6.22;;;2.20;;
11653;SDS011;5883;48.818;9.114;2022-10-17T00:58:31;2.85;;;1.77;;
11653;SDS011;5883;48.818;9.114;2022-10-17T01:00:58;6.57;;;2.22;;
11653;SDS011;5883;48.818;9.114;2022-10-17T01:03:24;3.83;;;2.60;;
11653;SDS011;5883;48.818;9.114;2022-10-17T01:05:51;4.75;;;2.28;;
11653;SDS011;5883;48.818;9.114;2022-10-17T01:08:19;3.50;;;2.22;;
11653;SDS011;5883;48.818;9.114;2022-10-17T01:10:49;2.63;;;1.90;;
11653;SDS011;5883;48.818;9.114;2022-10-17T01:13:21;2.72;;;2.03;;
11653;SDS011;5883;48.818;9.114;2022-10-17T01:15:51;7.20;;;2.33;;
11653;SDS011;5883;48.818;9.114;2022-10-17T01:18:25;2.85;;;2.08;;
11653;SDS011;5883;48.818;9.114;2022-10-17T01:23:47;10.27;;;2.72;;
11653;SDS011;5883;48.818;9.114;2022-10-17T01:26:18;2.33;;;2.03;;
11653;SDS011;5883;48.818;9.114;2022-10-17T01:31:32;3.17;;;2.38;;
11653;SDS011;5883;48.818;9.114;2022-10-17T01:34:02;3.72;;;2.20;;
11653;SDS011;5883;48.818;9.114;2022-10-17T01:36:35;4.47;;;2.20;;
11653;SDS011;5883;48.818;9.114;2022-10-17T01:39:06;3.60;;;2.22;;
11653;SDS011;5883;48.818;9.114;2022-10-17T01:41:37;3.00;;;2.20;;
11653;SDS011;5883;48.818;9.114;2022-10-17T01:44:07;10.60;;;2.08;;
11653;SDS011;5883;48.818;9.114;2022-10-17T01:46:37;3.20;;;2.20;;
11653;SDS011;5883;48.818;9.114;2022-10-17T01:49:05;3.97;;;2.20;;
11653;SDS011;5883;48.818;9.114;2022-10-17T01:51:34;3.22;;;2.45;;
11653;SDS011;5883;48.818;9.114;2022-10-17T01:54:03;7.80;;;2.55;;
11653;SDS011;5883;48.818;9.114;2022-10-17T01:56:31;3.17;;;2.15;;
11653;SDS011;5883;48.818;9.114;2022-10-17T01:58:59;8.95;;;2.40;;
11653;SDS011;5883;48.818;9.114;2022-10-17T02:01:26;5.15;;;2.40;;
11653;SDS011;5883;48.818;9.114;2022-10-17T02:03:56;6.68;;;2.40;;
11653;SDS011;5883;48.818;9.114;2022-10-17T02:06:23;6.07;;;2.50;;
11653;SDS011;5883;48.818;9.114;2022-10-17T02:08:49;7.40;;;2.45;;
11653;SDS011;5883;48.818;9.114;2022-10-17T02:11:17;2.75;;;2.10;;
11653;SDS011;5883;48.818;9.114;2022-10-17T02:16:33;7.63;;;2.50;;
11653;SDS011;5883;48.818;9.114;2022-10-17T02:21:50;6.20;;;2.45;;
11653;SDS011;5883;48.818;9.114;2022-10-17T02:24:19;5.57;;;2.45;;
11653;SDS011;5883;48.818;9.114;2022-10-17T02:26:49;8.48;;;2.22;;
11653;SDS011;5883;48.818;9.114;2022-10-17T02:29:18;7.97;;;2.38;;
11653;SDS011;5883;48.818;9.114;2022-10-17T02:31:47;3.92;;;2.47;;
11653;SDS011;5883;48.818;9.114;2022-10-17T02:34:15;2.85;;;2.20;;
11653;SDS011;5883;48.818;9.114;2022-10-17T02:36:44;4.53;;;2.10;;
11653;SDS011;5883;48.818;9.114;2022-10-17T02:39:13;6.30;;;2.20;;
11653;SDS011;5883;48.818;9.114;2022-10-17T02:41:40;3.42;;;1.80;;
11653;SDS011;5883;48.818;9.114;2022-10-17T02:44:08;6.25;;;2.30;;
11653;SDS011;5883;48.818;9.114;2022-10-17T02:46:35;9.52;;;2.13;;
11653;SDS011;5883;48.818;9.114;2022-10-17T02:49:05;6.55;;;2.17;;
11653;SDS011;5883;48.818;9.114;2022-10-17T02:51:35;3.60;;;2.20;;
11653;SDS011;5883;48.818;9.114;2022-10-17T02:54:04;8.57;;;2.35;;
11653;SDS011;5883;48.818;9.114;2022-10-17T02:56:36;6.57;;;1.90;;
11653;SDS011;5883;48.818;9.114;2022-10-17T02:59:03;7.55;;;2.25;;
11653;SDS011;5883;48.818;9.114;2022-10-17T03:01:30;6.07;;;2.08;;
11653;SDS011;5883;48.818;9.114;2022-10-17T03:04:04;5.45;;;1.90;;
11653;SDS011;5883;48.818;9.114;2022-10-17T03:06:30;6.82;;;2.00;;
11653;SDS011;5883;48.818;9.114;2022-10-17T03:08:57;8.07;;;2.10;;
11653;SDS011;5883;48.818;9.114;2022-10-17T03:11:23;3.95;;;1.98;;
11653;SDS011;5883;48.818;9.114;2022-10-17T03:13:51;4.05;;;1.80;;
11653;SDS011;5883;48.818;9.114;2022-10-17T03:16:18;2.72;;;2.20;;
11653;SDS011;5883;48.818;9.114;2022-10-17T03:18:44;2.45;;;1.95;;
11653;SDS011;5883;48.818;9.114;2022-10-17T03:21:11;3.60;;;2.00;;
11653;SDS011;5883;48.818;9.114;2022-10-17T03:23:37;3.15;;;1.80;;
11653;SDS011;5883;48.818;9.114;2022-10-17T03:26:04;5.75;;;2.50;;
11653;SDS011;5883;48.818;9.114;2022-10-17T03:28:31;2.58;;;1.88;;
11653;SDS011;5883;48.818;9.114;2022-10-17T03:30:59;2.00;;;1.77;;
11653;SDS011;5883;48.818;9.114;2022-10-17T03:33:25;3.25;;;1.90;;
11653;SDS011;5883;48.818;9.114;2022-10-17T03:35:52;2.55;;;1.80;;
11653;SDS011;5883;48.818;9.114;2022-10-17T03:38:18;11.40;;;2.45;;
11653;SDS011;5883;48.818;9.114;2022-10-17T03:40:45;2.20;;;1.80;;
11653;SDS011;5883;48.818;9.114;2022-10-17T03:43:19;3.60;;;2.00;;
11653;SDS011;5883;48.818;9.114;2022-10-17T03:45:46;4.30;;;1.95;;
11653;SDS011;5883;48.818;9.114;2022-10-17T03:48:14;2.40;;;1.73;;
11653;SDS011;5883;48.818;9.114;2022-10-17T03:50:40;4.72;;;1.88;;
11653;SDS011;5883;48.818;9.114;2022-10-17T03:53:07;3.85;;;2.03;;
11653;SDS011;5883;48.818;9.114;2022-10-17T03:55:33;3.47;;;1.83;;
11653;SDS011;5883;48.818;9.114;2022-10-17T03:58:00;5.05;;;2.10;;
11653;SDS011;5883;48.818;9.114;2022-10-17T04:00:26;4.05;;;1.98;;
11653;SDS011;5883;48.818;9.114;2022-10-17T04:02:53;6.13;;;2.03;;
11653;SDS011;5883;48.818;9.114;2022-10-17T04:05:20;3.20;;;2.25;;
11653;SDS011;5883;48.818;9.114;2022-10-17T04:07:47;3.10;;;2.00;;
11653;SDS011;5883;48.818;9.114;2022-10-17T04:10:14;3.00;;;1.73;;
11653;SDS011;5883;48.818;9.114;2022-10-17T04:12:40;3.72;;;2.22;;
11653;SDS011;5883;48.818;9.114;2022-10-17T04:15:07;4.47;;;2.20;;
11653;SDS011;5883;48.818;9.114;2022-10-17T04:17:34;4.88;;;1.92;;
11653;SDS011;5883;48.818;9.114;2022-10-17T04:20:00;1.92;;;1.73;;
11653;SDS011;5883;48.818;9.114;2022-10-17T04:22:28;3.60;;;1.73;;
11653;SDS011;5883;48.818;9.114;2022-10-17T04:24:55;5.60;;;2.28;;
11653;SDS011;5883;48.818;9.114;2022-10-17T04:27:21;2.90;;;2.00;;
11653;SDS011;5883;48.818;9.114;2022-10-17T04:29:48;2.90;;;2.00;;
11653;SDS011;5883;48.818;9.114;2022-10-17T04:32:14;2.95;;;2.30;;
11653;SDS011;5883;48.818;9.114;2022-10-17T04:34:41;3.60;;;2.33;;
11653;SDS011;5883;48.818;9.114;2022-10-17T04:37:08;2.20;;;2.00;;
11653;SDS011;5883;48.818;9.114;2022-10-17T04:39:36;8.63;;;2.53;;
11653;SDS011;5883;48.818;9.114;2022-10-17T04:42:02;3.40;;;2.00;;
11653;SDS011;5883;48.818;9.114;2022-10-17T04:44:29;3.10;;;2.30;;
11653;SDS011;5883;48.818;9.114;2022-10-17T04:46:57;5.63;;;2.22;;
11653;SDS011;5883;48.818;9.114;2022-10-17T04:49:24;3.40;;;2.47;;
11653;SDS011;5883;48.818;9.114;2022-10-17T04:51:50;10.60;;;2.40;;
11653;SDS011;5883;48.818;9.114;2022-10-17T04:54:18;3.92;;;2.40;;
11653;SDS011;5883;48.818;9.114;2022-10-17T04:56:46;4.65;;;1.98;;
11653;SDS011;5883;48.818;9.114;2022-10-17T04:59:12;6.25;;;2.80;;
11653;SDS011;5883;48.818;9.114;2022-10-17T05:01:39;3.92;;;2.20;;
11653;SDS011;5883;48.818;9.114;2022-10-17T05:04:05;9.20;;;2.45;;
11653;SDS011;5883;48.818;9.114;2022-10-17T05:06:32;7.85;;;2.40;;
11653;SDS011;5883;48.818;9.114;2022-10-17T05:08:59;11.73;;;2.47;;
11653;SDS011;5883;48.818;9.114;2022-10-17T05:11:26;10.38;;;2.95;;
11653;SDS011;5883;48.818;9.114;2022-10-17T05:13:55;3.05;;;2.70;;
11653;SDS011;5883;48.818;9.114;2022-10-17T05:16:22;5.97;;;2.28;;
11653;SDS011;5883;48.818;9.114;2022-10-17T05:18:49;5.95;;;3.33;;
11653;SDS011;5883;48.818;9.114;2022-10-17T05:21:16;3.28;;;2.80;;
11653;SDS011;5883;48.818;9.114;2022-10-17T05:23:43;6.03;;;2.60;;
11653;SDS011;5883;48.818;9.114;2022-10-17T05:26:10;5.43;;;2.50;;
11653;SDS011;5883;48.818;9.114;2022-10-17T05:28:36;7.88;;;3.05;;
11653;SDS011;5883;48.818;9.114;2022-10-17T05:31:05;7.88;;;3.15;;
11653;SDS011;5883;48.818;9.114;2022-10-17T05:33:31;9.95;;;3.05;;
11653;SDS011;5883;48.818;9.114;2022-10-17T05:35:58;5.40;;;3.17;;
11653;SDS011;5883;48.818;9.114;2022-10-17T05:38:25;4.95;;;2.65;;
11653;SDS011;5883;48.818;9.114;2022-10-17T05:40:55;4.32;;;2.83;;
11653;SDS011;5883;48.818;9.114;2022-10-17T05:43:22;3.53;;;2.40;;
11653;SDS011;5883;48.818;9.114;2022-10-17T05:45:48;5.10;;;2.90;;
11653;SDS011;5883;48.818;9.114;2022-10-17T05:48:16;4.40;;;2.83;;
11653;SDS011;5883;48.818;9.114;2022-10-17T05:50:43;7.15;;;2.33;;
11653;SDS011;5883;48.818;9.114;2022-10-17T05:53:09;3.75;;;2.78;;
11653;SDS011;5883;48.818;9.114;2022-10-17T05:55:36;5.63;;;2.72;;
11653;SDS011;5883;48.818;9.114;2022-10-17T05:58:02;4.65;;;2.53;;
11653;SDS011;5883;48.818;9.114;2022-10-17T06:00:29;5.85;;;2.50;;
11653;SDS011;5883;48.818;9.114;2022-10-17T06:02:55;5.20;;;2.28;;
11653;SDS011;5883;48.818;9.114;2022-10-17T06:05:23;3.70;;;2.40;;
11653;SDS011;5883;48.818;9.114;2022-10-17T06:07:50;3.75;;;1.88;;
11653;SDS011;5883;48.818;9.114;2022-10-17T06:10:19;2.83;;;2.22;;
11653;SDS011;5883;48.818;9.114;2022-10-17T06:12:46;2.92;;;2.28;;
11653;SDS011;5883;48.818;9.114;2022-10-17T06:15:12;6.03;;;2.30;;
11653;SDS011;5883;48.818;9.114;2022-10-17T06:17:39;6.20;;;2.53;;
11653;SDS011;5883;48.818;9.114;2022-10-17T06:20:08;5.93;;;2.80;;
11653;SDS011;5883;48.818;9.114;2022-10-17T06:22:38;4.50;;;2.28;;
11653;SDS011;5883;48.818;9.114;2022-10-17T06:25:05;5.78;;;2.35;;
11653;SDS011;5883;48.818;9.114;2022-10-17T06:27:32;6.80;;;2.72;;
11653;SDS011;5883;48.818;9.114;2022-10-17T06:29:58;2.28;;;1.95;;
11653;SDS011;5883;48.818;9.114;2022-10-17T06:32:25;6.90;;;1.98;;
11653;SDS011;5883;48.818;9.114;2022-10-17T06:34:52;10.48;;;2.60;;
11653;SDS011;5883;48.818;9.114;2022-10-17T06:37:18;5.82;;;2.45;;
11653;SDS011;5883;48.818;9.114;2022-10-17T06:39:46;3.13;;;2.28;;
11653;SDS011;5883;48.818;9.114;2022-10-17T06:42:12;3.10;;;2.20;;
11653;SDS011;5883;48.818;9.114;2022-10-17T06:44:39;7.32;;;2.25;;
11653;SDS011;5883;48.818;9.114;2022-10-17T06:47:06;5.45;;;2.20;;
11653;SDS011;5883;48.818;9.114;2022-10-17T06:49:32;4.13;;;2.30;;
11653;SDS011;5883;48.818;9.114;2022-10-17T06:51:59;4.00;;;2.08;;
11653;SDS011;5883;48.818;9.114;2022-10-17T06:54:26;6.20;;;3.17;;
11653;SDS011;5883;48.818;9.114;2022-10-17T06:56:54;5.63;;;2.75;;
11653;SDS011;5883;48.818;9.114;2022-10-17T06:59:21;6.47;;;2.70;;
11653;SDS011;5883;48.818;9.114;2022-10-17T07:01:47;6.68;;;3.55;;
11653;SDS011;5883;48.818;9.114;2022-10-17T07:04:14;11.77;;;3.45;;
11653;SDS011;5883;48.818;9.114;2022-10-17T07:06:40;11.27;;;3.65;;
11653;SDS011;5883;48.818;9.114;2022-10-17T07:09:07;11.77;;;3.78;;
11653;SDS011;5883;48.818;9.114;2022-10-17T07:11:33;13.48;;;4.03;;
11653;SDS011;5883;48.818;9.114;2022-10-17T07:14:01;9.27;;;3.33;;
11653;SDS011;5883;48.818;9.114;2022-10-17T07:16:28;8.38;;;3.38;;
11653;SDS011;5883;48.818;9.114;2022-10-17T07:18:55;9.57;;;3.28;;
11653;SDS011;5883;48.818;9.114;2022-10-17T07:21:21;7.30;;;3.47;;
11653;SDS011;5883;48.818;9.114;2022-10-17T07:23:48;9.23;;;3.95;;
11653;SDS011;5883;48.818;9.114;2022-10-17T07:26:15;8.07;;;4.10;;
11653;SDS011;5883;48.818;9.114;2022-10-17T07:28:42;10.05;;;3.47;;
11653;SDS011;5883;48.818;9.114;2022-10-17T07:31:11;10.38;;;3.28;;
11653;SDS011;5883;48.818;9.114;2022-10-17T07:33:38;5.60;;;2.60;;
11653;SDS011;5883;48.818;9.114;2022-10-17T07:36:05;6.15;;;2.72;;
11653;SDS011;5883;48.818;9.114;2022-10-17T07:38:32;9.30;;;2.78;;
11653;SDS011;5883;48.818;9.114;2022-10-17T07:40:59;5.97;;;2.60;;
11653;SDS011;5883;48.818;9.114;2022-10-17T07:43:27;5.93;;;2.80;;
11653;SDS011;5883;48.818;9.114;2022-10-17T07:45:53;7.35;;;3.15;;
11653;SDS011;5883;48.818;9.114;2022-10-17T07:48:22;7.68;;;3.15;;
11653;SDS011;5883;48.818;9.114;2022-10-17T07:50:49;5.88;;;2.15;;
11653;SDS011;5883;48.818;9.114;2022-10-17T07:53:15;3.10;;;2.15;;
11653;SDS011;5883;48.818;9.114;2022-10-17T07:55:42;3.35;;;2.20;;
11653;SDS011;5883;48.818;9.114;2022-10-17T07:58:10;4.35;;;2.20;;
11653;SDS011;5883;48.818;9.114;2022-10-17T08:00:37;4.90;;;2.45;;
11653;SDS011;5883;48.818;9.114;2022-10-17T08:03:04;7.07;;;3.00;;
11653;SDS011;5883;48.818;9.114;2022-10-17T08:05:32;5.55;;;2.17;;
11653;SDS011;5883;48.818;9.114;2022-10-17T08:07:59;4.18;;;1.77;;
11653;SDS011;5883;48.818;9.114;2022-10-17T08:10:25;1.98;;;1.38;;
11653;SDS011;5883;48.818;9.114;2022-10-17T08:12:54;9.70;;;2.45;;
11653;SDS011;5883;48.818;9.114;2022-10-17T08:15:20;10.73;;;2.33;;
11653;SDS011;5883;48.818;9.114;2022-10-17T08:17:47;6.45;;;1.83;;
11653;SDS011;5883;48.818;9.114;2022-10-17T08:20:14;3.15;;;2.00;;
11653;SDS011;5883;48.818;9.114;2022-10-17T08:22:46;3.92;;;2.08;;
11653;SDS011;5883;48.818;9.114;2022-10-17T08:25:16;6.72;;;2.28;;
11653;SDS011;5883;48.818;9.114;2022-10-17T08:27:43;3.25;;;1.73;;
11653;SDS011;5883;48.818;9.114;2022-10-17T08:30:10;5.35;;;1.63;;
11653;SDS011;5883;48.818;9.114;2022-10-17T08:32:36;7.40;;;1.58;;
11653;SDS011;5883;48.818;9.114;2022-10-17T08:35:03;5.88;;;1.50;;
11653;SDS011;5883;48.818;9.114;2022-10-17T08:37:29;4.20;;;1.60;;
11653;SDS011;5883;48.818;9.114;2022-10-17T08:39:57;13.75;;;2.05;;
11653;SDS011;5883;48.818;9.114;2022-10-17T08:42:28;3.30;;;1.65;;
11653;SDS011;5883;48.818;9.114;2022-10-17T08:44:58;5.82;;;1.58;;
11653;SDS011;5883;48.818;9.114;2022-10-17T08:47:26;3.47;;;1.73;;
11653;SDS011;5883;48.818;9.114;2022-10-17T08:49:53;2.95;;;1.40;;
11653;SDS011;5883;48.818;9.114;2022-10-17T08:52:24;4.28;;;1.90;;
11653;SDS011;5883;48.818;9.114;2022-10-17T08:54:54;4.30;;;1.58;;
11653;SDS011;5883;48.818;9.114;2022-10-17T08:57:22;6.82;;;1.70;;
11653;SDS011;5883;48.818;9.114;2022-10-17T08:59:49;4.65;;;1.35;;
11653;SDS011;5883;48.818;9.114;2022-10-17T09:02:27;5.78;;;1.50;;
11653;SDS011;5883;48.818;9.114;2022-10-17T09:04:59;3.58;;;1.48;;
11653;SDS011;5883;48.818;9.114;2022-10-17T09:07:30;3.08;;;1.30;;
11653;SDS011;5883;48.818;9.114;2022-10-17T09:10:00;10.20;;;1.75;;
11653;SDS011;5883;48.818;9.114;2022-10-17T09:12:30;4.53;;;1.70;;
11653;SDS011;5883;48.818;9.114;2022-10-17T09:15:04;8.55;;;1.90;;
11653;SDS011;5883;48.818;9.114;2022-10-17T09:17:38;4.72;;;1.88;;
11653;SDS011;5883;48.818;9.114;2022-10-17T09:20:09;4.60;;;1.70;;
11653;SDS011;5883;48.818;9.114;2022-10-17T09:22:37;3.05;;;1.50;;
11653;SDS011;5883;48.818;9.114;2022-10-17T09:25:05;4.60;;;1.80;;
11653;SDS011;5883;48.818;9.114;2022-10-17T09:27:37;8.77;;;1.88;;
11653;SDS011;5883;48.818;9.114;2022-10-17T09:30:14;3.08;;;1.90;;
11653;SDS011;5883;48.818;9.114;2022-10-17T09:32:42;3.70;;;1.63;;
11653;SDS011;5883;48.818;9.114;2022-10-17T09:35:11;4.13;;;1.83;;
11653;SDS011;5883;48.818;9.114;2022-10-17T09:37:38;9.07;;;2.38;;
11653;SDS011;5883;48.818;9.114;2022-10-17T09:40:06;6.60;;;2.10;;
11653;SDS011;5883;48.818;9.114;2022-10-17T09:42:34;3.63;;;2.05;;
11653;SDS011;5883;48.818;9.114;2022-10-17T09:45:04;5.88;;;1.83;;
11653;SDS011;5883;48.818;9.114;2022-10-17T09:47:39;10.10;;;1.70;;
11653;SDS011;5883;48.818;9.114;2022-10-17T09:50:19;3.70;;;1.83;;
11653;SDS011;5883;48.818;9.114;2022-10-17T09:52:47;8.48;;;2.30;;
11653;SDS011;5883;48.818;9.114;2022-10-17T09:55:16;4.20;;;2.00;;
11653;SDS011;5883;48.818;9.114;2022-10-17T09:57:50;11.38;;;2.47;;
11653;SDS011;5883;48.818;9.114;2022-10-17T10:00:20;6.88;;;2.30;;
11653;SDS011;5883;48.818;9.114;2022-10-17T10:02:47;6.82;;;2.22;;
11653;SDS011;5883;48.818;9.114;2022-10-17T10:05:15;6.15;;;1.92;;
11653;SDS011;5883;48.818;9.114;2022-10-17T10:07:41;4.38;;;1.45;;
11653;SDS011;5883;48.818;9.114;2022-10-17T10:10:21;9.65;;;1.60;;
11653;SDS011;5883;48.818;9.114;2022-10-17T10:13:00;2.92;;;1.80;;
11653;SDS011;5883;48.818;9.114;2022-10-17T10:15:33;6.72;;;1.70;;
11653;SDS011;5883;48.818;9.114;2022-10-17T10:18:00;9.60;;;2.10;;
11653;SDS011;5883;48.818;9.114;2022-10-17T10:20:28;7.13;;;1.70;;
11653;SDS011;5883;48.818;9.114;2022-10-17T10:23:05;5.65;;;2.00;;
11653;SDS011;5883;48.818;9.114;2022-10-17T10:25:32;3.80;;;2.03;;
11653;SDS011;5883;48.818;9.114;2022-10-17T10:27:58;12.35;;;1.90;;
11653;SDS011;5883;48.818;9.114;2022-10-17T10:30:27;6.63;;;1.55;;
11653;SDS011;5883;48.818;9.114;2022-10-17T10:32:57;3.30;;;1.60;;
11653;SDS011;5883;48.818;9.114;2022-10-17T10:35:28;4.63;;;1.13;;
11653;SDS011;5883;48.818;9.114;2022-10-17T10:37:56;3.88;;;1.35;;
11653;SDS011;5883;48.818;9.114;2022-10-17T10:40:24;4.60;;;1.40;;
11653;SDS011;5883;48.818;9.114;2022-10-17T10:42:53;3.67;;;1.58;;
11653;SDS011;5883;48.818;9.114;2022-10-17T10:45:21;1.90;;;1.15;;
11653;SDS011;5883;48.818;9.114;2022-10-17T10:47:49;3.05;;;1.20;;
11653;SDS011;5883;48.818;9.114;2022-10-17T10:50:20;2.28;;;1.10;;
11653;SDS011;5883;48.818;9.114;2022-10-17T10:52:49;2.85;;;1.50;;
11653;SDS011;5883;48.818;9.114;2022-10-17T10:55:20;4.05;;;1.67;;
11653;SDS011;5883;48.818;9.114;2022-10-17T10:57:49;3.45;;;1.30;;
11653;SDS011;5883;48.818;9.114;2022-10-17T11:00:17;2.03;;;1.30;;
11653;SDS011;5883;48.818;9.114;2022-10-17T11:02:48;4.65;;;1.20;;
11653;SDS011;5883;48.818;9.114;2022-10-17T11:05:21;1.95;;;1.10;;
11653;SDS011;5883;48.818;9.114;2022-10-17T11:07:49;2.83;;;1.38;;
11653;SDS011;5883;48.818;9.114;2022-10-17T11:10:18;1.52;;;1.10;;
11653;SDS011;5883;48.818;9.114;2022-10-17T11:12:48;5.85;;;1.60;;
11653;SDS011;5883;48.818;9.114;2022-10-17T11:15:17;3.25;;;1.35;;
11653;SDS011;5883;48.818;9.114;2022-10-17T11:17:49;5.10;;;1.15;;
11653;SDS011;5883;48.818;9.114;2022-10-17T11:20:18;2.05;;;1.13;;
11653;SDS011;5883;48.818;9.114;2022-10-17T11:22:48;3.95;;;1.33;;
11653;SDS011;5883;48.818;9.114;2022-10-17T11:25:18;3.78;;;1.55;;
11653;SDS011;5883;48.818;9.114;2022-10-17T11:27:46;6.57;;;1.60;;
11653;SDS011;5883;48.818;9.114;2022-10-17T11:30:13;4.78;;;1.17;;
11653;SDS011;5883;48.818;9.114;2022-10-17T11:32:41;5.63;;;1.33;;
11653;SDS011;5883;48.818;9.114;2022-10-17T11:35:13;4.50;;;1.50;;
11653;SDS011;5883;48.818;9.114;2022-10-17T11:37:43;5.45;;;1.67;;
11653;SDS011;5883;48.818;9.114;2022-10-17T11:40:15;2.10;;;1.33;;
11653;SDS011;5883;48.818;9.114;2022-10-17T11:42:46;1.85;;;1.00;;
11653;SDS011;5883;48.818;9.114;2022-10-17T11:45:15;4.38;;;1.50;;
11653;SDS011;5883;48.818;9.114;2022-10-17T11:47:43;3.60;;;1.20;;
11653;SDS011;5883;48.818;9.114;2022-10-17T11:50:15;1.63;;;0.95;;
11653;SDS011;5883;48.818;9.114;2022-10-17T11:52:45;4.45;;;1.80;;
11653;SDS011;5883;48.818;9.114;2022-10-17T11:55:16;3.08;;;1.23;;
11653;SDS011;5883;48.818;9.114;2022-10-17T11:57:48;4.85;;;1.30;;
11653;SDS011;5883;48.818;9.114;2022-10-17T12:00:20;2.25;;;1.10;;
11653;SDS011;5883;48.818;9.114;2022-10-17T12:02:49;6.15;;;1.10;;
11653;SDS011;5883;48.818;9.114;2022-10-17T12:05:22;3.70;;;1.35;;
11653;SDS011;5883;48.818;9.114;2022-10-17T12:07:52;3.53;;;1.48;;
11653;SDS011;5883;48.818;9.114;2022-10-17T12:10:27;4.13;;;1.30;;
11653;SDS011;5883;48.818;9.114;2022-10-17T12:12:56;4.65;;;1.70;;
11653;SDS011;5883;48.818;9.114;2022-10-17T12:15:26;4.80;;;1.38;;
11653;SDS011;5883;48.818;9.114;2022-10-17T12:17:53;3.55;;;1.15;;
11653;SDS011;5883;48.818;9.114;2022-10-17T12:20:33;3.10;;;1.13;;
11653;SDS011;5883;48.818;9.114;2022-10-17T12:23:05;4.72;;;1.30;;
11653;SDS011;5883;48.818;9.114;2022-10-17T12:25:48;5.20;;;1.02;;
11653;SDS011;5883;48.818;9.114;2022-10-17T12:28:16;3.80;;;1.10;;
11653;SDS011;5883;48.818;9.114;2022-10-17T12:30:50;6.47;;;1.23;;
11653;SDS011;5883;48.818;9.114;2022-10-17T12:33:18;4.90;;;1.20;;
11653;SDS011;5883;48.818;9.114;2022-10-17T12:35:46;4.30;;;1.20;;
11653;SDS011;5883;48.818;9.114;2022-10-17T12:38:17;4.85;;;1.35;;
11653;SDS011;5883;48.818;9.114;2022-10-17T12:40:53;1.75;;;1.10;;
11653;SDS011;5883;48.818;9.114;2022-10-17T12:46:04;4.10;;;1.30;;
11653;SDS011;5883;48.818;9.114;2022-10-17T12:51:16;8.70;;;1.60;;
11653;SDS011;5883;48.818;9.114;2022-10-17T12:53:45;3.60;;;1.70;;
11653;SDS011;5883;48.818;9.114;2022-10-17T12:56:17;5.53;;;1.98;;
11653;SDS011;5883;48.818;9.114;2022-10-17T12:58:45;6.30;;;1.80;;
11653;SDS011;5883;48.818;9.114;2022-10-17T13:01:14;8.30;;;2.45;;
11653;SDS011;5883;48.818;9.114;2022-10-17T13:03:42;4.30;;;1.70;;
11653;SDS011;5883;48.818;9.114;2022-10-17T13:06:12;12.40;;;2.58;;
11653;SDS011;5883;48.818;9.114;2022-10-17T13:08:42;10.73;;;2.40;;
11653;SDS011;5883;48.818;9.114;2022-10-17T13:11:09;3.33;;;1.50;;
11653;SDS011;5883;48.818;9.114;2022-10-17T13:13:40;6.97;;;1.52;;
11653;SDS011;5883;48.818;9.114;2022-10-17T13:16:07;6.18;;;1.83;;
11653;SDS011;5883;48.818;9.114;2022-10-17T13:18:34;13.65;;;2.35;;
11653;SDS011;5883;48.818;9.114;2022-10-17T13:21:01;7.50;;;2.05;;
11653;SDS011;5883;48.818;9.114;2022-10-17T13:23:29;8.90;;;1.60;;
11653;SDS011;5883;48.818;9.114;2022-10-17T13:26:07;5.60;;;1.98;;
11653;SDS011;5883;48.818;9.114;2022-10-17T13:28:38;2.53;;;1.23;;
11653;SDS011;5883;48.818;9.114;2022-10-17T13:31:05;2.17;;;1.25;;
11653;SDS011;5883;48.818;9.114;2022-10-17T13:33:37;3.38;;;2.05;;
11653;SDS011;5883;48.818;9.114;2022-10-17T13:36:05;4.47;;;1.85;;
11653;SDS011;5883;48.818;9.114;2022-10-17T13:38:33;4.03;;;2.78;;
11653;SDS011;5883;48.818;9.114;2022-10-17T13:41:01;5.88;;;1.90;;
11653;SDS011;5883;48.818;9.114;2022-10-17T13:43:28;5.95;;;1.83;;
11653;SDS011;5883;48.818;9.114;2022-10-17T13:45:59;3.88;;;1.40;;
11653;SDS011;5883;48.818;9.114;2022-10-17T13:48:29;3.83;;;1.25;;
11653;SDS011;5883;48.818;9.114;2022-10-17T13:50:57;4.82;;;1.80;;
11653;SDS011;5883;48.818;9.114;2022-10-17T13:53:28;5.43;;;1.77;;
11653;SDS011;5883;48.818;9.114;2022-10-17T13:55:56;4.40;;;1.48;;
11653;SDS011;5883;48.818;9.114;2022-10-17T13:58:23;4.57;;;1.17;;
11653;SDS011;5883;48.818;9.114;2022-10-17T14:00:50;5.03;;;1.80;;
11653;SDS011;5883;48.818;9.114;2022-10-17T14:03:19;5.82;;;1.50;;
11653;SDS011;5883;48.818;9.114;2022-10-17T14:06:06;5.65;;;1.75;;
11653;SDS011;5883;48.818;9.114;2022-10-17T14:08:36;2.03;;;1.17;;
11653;SDS011;5883;48.818;9.114;2022-10-17T14:11:12;2.60;;;1.45;;
11653;SDS011;5883;48.818;9.114;2022-10-17T14:13:38;3.22;;;1.58;;
11653;SDS011;5883;48.818;9.114;2022-10-17T14:16:06;1.88;;;1.23;;
11653;SDS011;5883;48.818;9.114;2022-10-17T14:18:36;3.53;;;1.77;;
11653;SDS011;5883;48.818;9.114;2022-10-17T14:21:03;1.73;;;1.27;;
11653;SDS011;5883;48.818;9.114;2022-10-17T14:23:31;5.10;;;1.60;;
11653;SDS011;5883;48.818;9.114;2022-10-17T14:26:09;2.92;;;1.75;;
11653;SDS011;5883;48.818;9.114;2022-10-17T14:28:36;4.18;;;1.70;;
11653;SDS011;5883;48.818;9.114;2022-10-17T14:33:52;5.55;;;1.45;;
11653;SDS011;5883;48.818;9.114;2022-10-17T14:36:19;4.18;;;1.33;;
11653;SDS011;5883;48.818;9.114;2022-10-17T14:38:46;1.48;;;1.10;;
11653;SDS011;5883;48.818;9.114;2022-10-17T14:41:14;3.65;;;1.50;;
11653;SDS011;5883;48.818;9.114;2022-10-17T14:43:42;5.65;;;1.40;;
11653;SDS011;5883;48.818;9.114;2022-10-17T14:46:11;16.92;;;2.53;;
11653;SDS011;5883;48.818;9.114;2022-10-17T14:48:39;2.13;;;1.48;;
11653;SDS011;5883;48.818;9.114;2022-10-17T14:51:09;2.65;;;1.67;;
11653;SDS011;5883;48.818;9.114;2022-10-17T14:53:36;4.10;;;1.70;;
11653;SDS011;5883;48.818;9.114;2022-10-17T14:56:17;4.57;;;1.63;;
11653;SDS011;5883;48.818;9.114;2022-10-17T14:58:46;3.17;;;1.60;;
11653;SDS011;5883;48.818;9.114;2022-10-17T15:01:12;3.95;;;1.65;;
11653;SDS011;5883;48.818;9.114;2022-10-17T15:03:39;3.60;;;1.98;;
11653;SDS011;5883;48.818;9.114;2022-10-17T15:06:11;1.77;;;1.48;;
11653;SDS011;5883;48.818;9.114;2022-10-17T15:08:40;2.55;;;1.63;;
11653;SDS011;5883;48.818;9.114;2022-10-17T15:11:07;5.75;;;1.67;;
11653;SDS011;5883;48.818;9.114;2022-10-17T15:13:35;5.18;;;1.48;;
11653;SDS011;5883;48.818;9.114;2022-10-17T15:16:01;4.75;;;1.63;;
11653;SDS011;5883;48.818;9.114;2022-10-17T15:18:28;2.17;;;1.60;;
11653;SDS011;5883;48.818;9.114;2022-10-17T15:20:56;11.80;;;2.05;;
11653;SDS011;5883;48.818;9.114;2022-10-17T15:23:24;3.72;;;1.38;;
11653;SDS011;5883;48.818;9.114;2022-10-17T15:25:53;1.90;;;1.70;;
11653;SDS011;5883;48.818;9.114;2022-10-17T15:28:20;4.03;;;1.45;;